Time;durP1;ratioP1;P1;durP2;ratioP2;P2;SDS_P1;SDS_P2;PMS_P1;PMS_P2;Temp;Humidity;BMP_temperature;BMP_pressure;BME280_temperature;BME280_humidity;BME280_pressure;Samples;Min_cycle;Max_cycle;Signal;HPM_P1;HPM_P2
2024/03/12 00:00:47;;;;;;;11.30;5.70;;;;;;;9.94;72.37;96064.13;5117999;28;20575;-86
2024/03/12 00:03:15;;;;;;;7.10;6.17;;;;;;;10.04;72.48;96079.91;5132054;28;20198;-86
2024/03/12 00:05:41;;;;;;;12.47;6.20;;;;;;;10.17;72.89;96100.41;5132304;28;20232;-86
2024/03/12 00:08:08;;;;;;;7.87;6.43;;;;;;;10.18;72.78;96096.69;5113723;27;20203;-86
2024/03/12 00:10:35;;;;;;;9.17;6.87;;;;;;;9.99;73.15;96059.53;5119514;28;20256;-86
2024/03/12 00:13:03;;;;;;;8.47;7.37;;;;;;;10.18;73.30;96075.41;5112079;28;20219;-85
2024/03/12 00:15:32;;;;;;;11.60;6.77;;;;;;;9.99;73.44;96050.78;5129642;28;20195;-85
2024/03/12 00:18:04;;;;;;;10.23;7.03;;;;;;;9.97;73.55;96053.72;5132600;27;20248;-85
2024/03/12 00:20:33;;;;;;;7.63;6.70;;;;;;;10.12;73.58;96073.91;5135045;27;20187;-85
2024/03/12 00:23:01;;;;;;;9.93;7.40;;;;;;;10.05;73.66;96073.50;5136791;27;20198;-85
2024/03/12 00:25:30;;;;;;;10.63;7.77;;;;;;;10.06;73.84;96061.78;5135844;27;20229;-86
2024/03/12 00:27:57;;;;;;;9.10;7.10;;;;;;;9.98;74.36;96055.28;5135834;27;20195;-85
2024/03/12 00:30:25;;;;;;;7.37;6.17;;;;;;;9.87;73.89;96022.00;5135615;27;20210;-86
2024/03/12 00:32:54;;;;;;;11.10;7.17;;;;;;;9.99;74.36;96032.94;5136905;27;20620;-85
2024/03/12 00:35:23;;;;;;;9.17;7.47;;;;;;;9.99;74.13;96027.63;5136388;27;20248;-86
2024/03/12 00:37:50;;;;;;;10.57;7.40;;;;;;;9.98;74.18;96027.91;5134831;27;20195;-86
2024/03/12 00:40:19;;;;;;;10.27;7.27;;;;;;;10.01;73.73;96022.78;5123069;27;20286;-86
2024/03/12 00:42:48;;;;;;;8.37;7.23;;;;;;;9.94;73.53;96011.75;5115602;28;20662;-86
2024/03/12 00:45:25;;;;;;;9.57;7.10;;;;;;;9.95;73.38;96018.66;5115959;27;20636;-86
2024/03/12 00:47:52;;;;;;;8.80;6.60;;;;;;;9.96;74.24;96027.44;5129545;27;20199;-86
2024/03/12 00:50:22;;;;;;;8.13;6.57;;;;;;;9.98;73.69;96018.06;5130760;27;20621;-86
2024/03/12 00:52:52;;;;;;;11.83;8.20;;;;;;;9.87;73.12;96003.38;5120046;27;20603;-86
2024/03/12 00:55:20;;;;;;;10.07;6.70;;;;;;;10.01;73.38;96012.16;5114628;28;20229;-85
2024/03/12 00:57:48;;;;;;;10.07;7.07;;;;;;;9.73;73.47;95973.38;5114343;28;20544;-86
2024/03/12 01:00:18;;;;;;;10.33;7.60;;;;;;;9.96;73.18;96003.50;5130434;27;20226;-86
2024/03/12 01:02:49;;;;;;;10.17;7.30;;;;;;;9.84;73.09;95979.28;5135729;27;20286;-86
2024/03/12 01:05:17;;;;;;;8.70;6.70;;;;;;;9.60;73.44;95966.97;5134399;27;20273;-83
2024/03/12 01:07:47;;;;;;;8.17;6.63;;;;;;;9.95;73.54;96012.53;5135399;27;20190;-84
2024/03/12 01:10:14;;;;;;;10.43;7.50;;;;;;;9.89;74.23;96006.56;5135757;27;20199;-84
2024/03/12 01:12:41;;;;;;;7.73;6.90;;;;;;;9.55;74.57;95933.31;5136037;27;20198;-84
2024/03/12 01:15:09;;;;;;;8.20;7.27;;;;;;;9.88;74.04;95982.94;5128494;27;20310;-84
2024/03/12 01:17:39;;;;;;;11.23;7.23;;;;;;;9.88;74.18;95978.41;5115226;28;20241;-84
2024/03/12 01:20:09;;;;;;;9.90;6.73;;;;;;;9.71;74.29;95943.66;5115847;28;20195;-84
2024/03/12 01:22:37;;;;;;;7.57;6.87;;;;;;;9.70;73.49;95926.13;5115701;28;20256;-84
2024/03/12 01:25:07;;;;;;;9.73;6.27;;;;;;;9.88;73.28;95965.09;5128849;27;20736;-84
2024/03/12 01:27:34;;;;;;;10.63;6.53;;;;;;;9.89;73.52;95956.03;5135519;27;20220;-84
2024/03/12 01:30:06;;;;;;;10.40;6.83;;;;;;;9.65;73.46;95918.28;5135590;27;20195;-84
2024/03/12 01:32:33;;;;;;;8.17;6.53;;;;;;;9.94;73.51;95947.19;5134482;27;20278;-85
2024/03/12 01:34:59;;;;;;;9.47;6.47;;;;;;;9.95;72.92;95944.25;5134664;27;20768;-84
2024/03/12 01:37:29;;;;;;;10.03;6.60;;;;;;;9.97;73.16;95943.94;5135380;27;20209;-84
2024/03/12 01:39:56;;;;;;;13.23;7.13;;;;;;;9.84;73.14;95928.78;5134797;27;20199;-84
2024/03/12 01:42:25;;;;;;;6.10;5.53;;;;;;;9.80;72.30;95918.75;5124492;27;20207;-84
2024/03/12 01:44:51;;;;;;;8.17;6.27;;;;;;;9.95;73.20;95936.25;5115169;28;20210;-84
2024/03/12 01:47:18;;;;;;;13.73;6.33;;;;;;;9.98;72.80;95948.16;5114467;28;20203;-83
2024/03/12 01:49:48;;;;;;;9.73;6.43;;;;;;;9.94;72.67;95950.63;5114808;28;20203;-84
2024/03/12 01:52:16;;;;;;;6.80;6.00;;;;;;;9.95;73.19;95957.53;5113870;28;20561;-84
2024/03/12 01:54:44;;;;;;;8.00;6.70;;;;;;;9.87;73.16;95947.56;5114447;28;20776;-84
2024/03/12 01:57:11;;;;;;;9.87;6.57;;;;;;;9.78;72.12;95912.16;5114947;28;20624;-84
2024/03/12 01:59:40;;;;;;;19.10;6.30;;;;;;;10.05;72.12;95937.91;5114644;28;20280;-84
2024/03/12 02:02:06;;;;;;;7.47;5.97;;;;;;;9.97;72.05;95936.75;5114325;28;20196;-84
2024/03/12 02:04:34;;;;;;;7.63;6.53;;;;;;;9.96;72.15;95937.81;5115913;27;20202;-83
2024/03/12 02:07:00;;;;;;;6.40;5.50;;;;;;;9.84;72.53;95916.28;5134440;27;20198;-84
2024/03/12 02:09:27;;;;;;;10.03;6.80;;;;;;;9.75;72.72;95921.50;5134587;27;20252;-84
2024/03/12 02:11:54;;;;;;;9.30;6.63;;;;;;;9.66;73.04;95912.66;5134635;27;20681;-84
2024/03/12 02:14:21;;;;;;;8.70;7.20;;;;;;;9.48;73.20;95885.09;5130548;27;20577;-84
2024/03/12 02:16:50;;;;;;;8.77;6.50;;;;;;;9.68;73.10;95922.97;5115286;27;20199;-83
2024/03/12 02:19:18;;;;;;;10.37;7.07;;;;;;;9.65;72.98;95910.31;5135515;27;20580;-84
2024/03/12 02:21:45;;;;;;;8.23;6.50;;;;;;;9.61;73.24;95917.28;5134715;27;20199;-84
2024/03/12 02:24:13;;;;;;;12.03;6.93;;;;;;;9.57;73.35;95913.66;5133480;27;20613;-84
2024/03/12 02:26:40;;;;;;;8.10;7.27;;;;;;;9.29;73.00;95863.97;5134128;27;20258;-83
2024/03/12 02:29:07;;;;;;;11.87;7.17;;;;;;;9.20;73.41;95849.78;5133752;27;20198;-84
2024/03/12 02:31:35;;;;;;;11.43;7.17;;;;;;;9.56;73.19;95907.53;5134606;27;20226;-84
2024/03/12 02:34:03;;;;;;;10.03;6.40;;;;;;;9.27;72.99;95871.44;5133125;27;20669;-84
2024/03/12 02:36:30;;;;;;;9.07;7.03;;;;;;;9.51;73.24;95900.44;5133973;27;20251;-84
2024/03/12 02:38:57;;;;;;;7.70;6.80;;;;;;;9.34;73.11;95889.63;5134497;27;20245;-84
2024/03/12 02:41:27;;;;;;;7.70;6.60;;;;;;;9.60;73.02;95910.38;5125591;27;20204;-84
2024/03/12 02:43:54;;;;;;;8.07;7.17;;;;;;;9.31;73.30;95864.44;5113489;28;20202;-84
2024/03/12 02:46:22;;;;;;;11.37;7.33;;;;;;;9.63;72.84;95928.41;5114082;28;20196;-84
2024/03/12 02:48:51;;;;;;;10.07;7.20;;;;;;;9.65;72.62;95912.97;5126024;27;20207;-84
2024/03/12 02:51:18;;;;;;;7.70;6.37;;;;;;;9.76;72.43;95912.44;5133343;27;20199;-84
2024/03/12 02:53:45;;;;;;;11.03;6.90;;;;;;;9.54;72.37;95891.09;5133503;27;20214;-84
2024/03/12 02:56:12;;;;;;;9.17;5.57;;;;;;;9.45;72.52;95856.50;5134148;27;20194;-84
2024/03/12 02:58:40;;;;;;;6.37;5.67;;;;;;;9.86;71.89;95892.84;5132489;27;20234;-83
2024/03/12 03:01:07;;;;;;;9.93;6.27;;;;;;;9.84;71.78;95896.91;5124611;27;20191;-84
2024/03/12 03:03:34;;;;;;;10.10;7.10;;;;;;;9.67;72.54;95900.94;5112607;27;20632;-84
2024/03/12 03:06:01;;;;;;;8.67;6.40;;;;;;;9.63;72.86;95899.16;5113019;28;20191;-84
2024/03/12 03:08:30;;;;;;;12.00;6.87;;;;;;;9.51;72.63;95876.53;5113384;28;20214;-83
2024/03/12 03:10:57;;;;;;;6.57;5.87;;;;;;;9.64;72.71;95887.44;5113132;27;20290;-83
2024/03/12 03:13:25;;;;;;;10.90;7.30;;;;;;;9.45;73.28;95872.44;5118884;27;20202;-84
2024/03/12 03:15:53;;;;;;;7.77;5.73;;;;;;;9.60;73.14;95887.25;5133345;27;20247;-84
2024/03/12 03:18:20;;;;;;;7.13;5.57;;;;;;;9.61;73.14;95890.72;5133392;27;20252;-83
2024/03/12 03:20:46;;;;;;;8.13;6.23;;;;;;;9.53;73.34;95869.06;5114613;27;20206;-84
2024/03/12 03:23:14;;;;;;;12.03;6.43;;;;;;;9.54;73.03;95870.63;5111814;28;20203;-84
2024/03/12 03:25:40;;;;;;;7.97;5.57;;;;;;;9.44;73.20;95843.50;5112585;28;20199;-84
2024/03/12 03:28:08;;;;;;;9.67;5.63;;;;;;;9.52;73.12;95840.94;5121989;27;20664;-84
2024/03/12 03:30:35;;;;;;;8.77;4.83;;;;;;;9.66;72.98;95870.13;5112409;28;20196;-84
2024/03/12 03:33:06;;;;;;;7.60;5.30;;;;;;;9.63;73.05;95865.41;5112698;28;20207;-86
2024/03/12 03:35:33;;;;;;;10.37;5.97;;;;;;;9.50;73.30;95879.50;5111408;28;20616;-84
2024/03/12 03:38:00;;;;;;;7.27;5.77;;;;;;;9.48;73.09;95881.66;5113014;28;20627;-83
2024/03/12 03:40:28;;;;;;;6.23;5.60;;;;;;;9.35;73.54;95869.19;5112857;28;20203;-83
2024/03/12 03:42:56;;;;;;;7.70;5.93;;;;;;;9.03;73.09;95796.50;5112461;28;20195;-84
2024/03/12 03:45:23;;;;;;;15.43;6.40;;;;;;;9.11;73.33;95803.78;5112550;28;20195;-84
2024/03/12 03:47:50;;;;;;;10.30;5.80;;;;;;;9.44;73.62;95867.38;5111780;28;20278;-84
2024/03/12 03:50:18;;;;;;;6.73;6.03;;;;;;;9.43;73.69;95871.13;5112299;28;20240;-83
2024/03/12 03:52:45;;;;;;;8.47;5.80;;;;;;;9.43;73.74;95863.16;5112208;28;20191;-83
2024/03/12 03:55:12;;;;;;;6.70;5.47;;;;;;;9.46;73.58;95863.38;5115909;28;20226;-83
2024/03/12 03:57:40;;;;;;;8.83;6.33;;;;;;;9.49;73.67;95857.47;5115503;28;20203;-84
2024/03/12 04:00:14;;;;;;;12.40;6.33;;;;;;;9.21;73.57;95824.81;5115840;28;20261;-89
2024/03/12 04:02:43;;;;;;;7.57;6.40;;;;;;;9.39;74.13;95859.53;5116999;27;20580;-87
2024/03/12 04:05:10;;;;;;;9.00;6.10;;;;;;;9.30;73.99;95848.81;5118013;27;20249;-85
2024/03/12 04:07:40;;;;;;;10.10;5.53;;;;;;;9.45;73.80;95856.50;5115899;28;20199;-87
2024/03/12 04:10:10;;;;;;;9.27;6.43;;;;;;;9.03;74.22;95801.81;5116840;28;20237;-85
2024/03/12 04:12:39;;;;;;;9.33;6.17;;;;;;;9.42;74.84;95861.59;5116126;28;20282;-85
2024/03/12 04:15:07;;;;;;;11.90;5.90;;;;;;;9.42;76.24;95872.22;5117424;28;20314;-90
2024/03/12 04:17:34;;;;;;;10.07;6.03;;;;;;;9.44;75.98;95886.78;5117665;28;20210;-90
2024/03/12 04:20:00;;;;;;;11.47;6.73;;;;;;;9.25;76.33;95864.84;5117920;28;20195;-90
2024/03/12 04:22:28;;;;;;;11.40;5.87;;;;;;;9.41;76.57;95886.56;5117785;28;20198;-92
2024/03/12 04:24:56;;;;;;;8.37;6.60;;;;;;;8.94;77.66;95836.19;5117171;28;20629;-93
2024/03/12 04:27:23;;;;;;;8.83;6.20;;;;;;;8.88;79.92;95842.69;5117413;28;20203;-93
2024/03/12 04:29:50;;;;;;;8.17;6.90;;;;;;;9.20;80.01;95886.19;5115621;28;20554;-91
2024/03/12 04:32:17;;;;;;;9.70;6.43;;;;;;;9.09;80.58;95866.22;5129713;27;20653;-91
2024/03/12 04:34:44;;;;;;;12.20;6.17;;;;;;;9.13;81.19;95891.09;5136688;27;20634;-91
2024/03/12 04:37:12;;;;;;;10.03;6.80;;;;;;;9.13;81.30;95886.56;5121412;27;20196;-91
2024/03/12 04:39:42;;;;;;;8.80;5.80;;;;;;;8.73;81.99;95822.53;5120334;27;20209;-91
2024/03/12 04:42:10;;;;;;;10.57;6.23;;;;;;;8.97;82.24;95872.78;5137153;27;20228;-91
2024/03/12 04:44:37;;;;;;;10.60;5.30;;;;;;;8.95;82.95;95879.47;5136634;27;20194;-92
2024/03/12 04:47:04;;;;;;;11.87;7.47;;;;;;;8.96;82.96;95881.03;5137848;27;20338;-91
2024/03/12 04:49:31;;;;;;;9.43;6.47;;;;;;;8.46;83.73;95810.00;5137611;27;20195;-91
2024/03/12 04:51:57;;;;;;;6.93;5.70;;;;;;;8.84;83.72;95870.91;5122372;27;20199;-91
2024/03/12 04:54:24;;;;;;;9.77;6.73;;;;;;;8.78;84.67;95874.72;5122552;27;20274;-91
2024/03/12 04:56:51;;;;;;;8.97;7.37;;;;;;;8.34;84.90;95820.25;5135997;27;20549;-90
2024/03/12 04:59:20;;;;;;;11.07;8.70;;;;;;;8.57;85.19;95853.84;5118437;27;20648;-90
2024/03/12 05:01:48;;;;;;;39.27;35.13;;;;;;;8.36;85.73;95826.03;5132198;27;20209;-90
2024/03/12 05:04:15;;;;;;;10.33;7.27;;;;;;;8.54;85.41;95850.97;5137204;27;20665;-91
2024/03/12 05:06:42;;;;;;;7.13;6.33;;;;;;;8.65;85.97;95872.81;5137056;27;20206;-88
2024/03/12 05:09:09;;;;;;;8.30;6.10;;;;;;;8.75;86.05;95896.50;5136220;27;20657;-89
2024/03/12 05:11:36;;;;;;;10.77;5.57;;;;;;;8.68;86.19;95854.47;5112559;27;20204;-91
2024/03/12 05:14:04;;;;;;;7.43;5.87;;;;;;;8.55;86.14;95845.38;5096522;28;20200;-90
2024/03/12 05:16:32;;;;;;;8.33;6.10;;;;;;;8.44;86.27;95833.38;5133189;27;20285;-91
2024/03/12 05:18:59;;;;;;;6.67;5.80;;;;;;;8.69;86.89;95884.41;5136930;27;20243;-90
2024/03/12 05:21:27;;;;;;;8.67;6.97;;;;;;;8.70;86.69;95878.03;5135548;27;20641;-87
2024/03/12 05:23:54;;;;;;;9.10;6.63;;;;;;;8.67;86.93;95889.22;5125726;27;20699;-89
2024/03/12 05:26:25;;;;;;;9.20;7.17;;;;;;;8.56;87.08;95881.44;5135725;27;20198;-90
2024/03/12 05:28:54;;;;;;;8.57;6.70;;;;;;;8.57;87.54;95898.94;5131975;27;20623;-86
2024/03/12 05:31:29;;;;;;;9.27;7.67;;;;;;;8.54;88.12;95918.06;5115958;27;20215;-86
2024/03/12 05:33:59;;;;;;;9.60;7.70;;;;;;;8.33;87.96;95916.78;5136449;27;20246;-86
2024/03/12 05:36:29;;;;;;;8.83;6.63;;;;;;;8.49;88.08;95952.63;5136400;27;20222;-86
2024/03/12 05:39:04;;;;;;;11.93;7.37;;;;;;;8.24;88.34;95927.22;5134461;27;20199;-86
2024/03/12 05:41:40;;;;;;;8.97;7.10;;;;;;;8.57;87.79;95964.44;5136726;27;20198;-86
2024/03/12 05:49:39;;;;;;;12.53;9.57;;;;;;;8.70;87.71;95963.72;5136743;27;20202;-87
2024/03/12 05:52:06;;;;;;;15.83;11.37;;;;;;;8.73;87.70;95959.69;5136313;27;20653;-87
2024/03/12 05:54:33;;;;;;;14.33;10.73;;;;;;;8.62;86.89;95929.09;5127718;27;20707;-87
2024/03/12 05:57:00;;;;;;;41.00;29.20;;;;;;;8.84;87.04;95944.41;5128052;27;20283;-87
2024/03/12 05:59:27;;;;;;;11.10;8.90;;;;;;;8.67;87.40;95921.06;5134869;27;20237;-87
2024/03/12 06:01:54;;;;;;;7.90;6.63;;;;;;;8.60;87.19;95910.03;5134478;27;20194;-86
2024/03/12 06:04:21;;;;;;;4.57;4.03;;;;;;;8.78;86.57;95933.09;5134164;27;20213;-86
2024/03/12 06:06:49;;;;;;;5.47;3.00;;;;;;;8.27;86.53;95875.50;5134609;27;20199;-87
2024/03/12 06:09:22;;;;;;;5.70;4.00;;;;;;;8.36;86.21;95894.19;5134699;27;20202;-86
2024/03/12 06:11:49;;;;;;;7.33;4.93;;;;;;;8.60;86.57;95905.53;5134929;27;20228;-86
2024/03/12 06:14:15;;;;;;;2.90;2.60;;;;;;;8.83;86.12;95946.28;5133333;27;20603;-86
2024/03/12 06:16:44;;;;;;;3.10;2.83;;;;;;;8.88;86.13;95935.56;5133635;27;20279;-86
2024/03/12 06:19:11;;;;;;;3.53;2.53;;;;;;;8.47;85.67;95891.13;5134387;27;20190;-86
2024/03/12 06:21:38;;;;;;;2.00;1.80;;;;;;;8.51;85.63;95878.84;5134773;27;20289;-87
2024/03/12 06:24:08;;;;;;;2.97;2.77;;;;;;;8.74;84.41;95905.56;5131067;27;20256;-86
2024/03/12 06:26:35;;;;;;;1.50;1.40;;;;;;;8.55;85.03;95895.75;5127626;27;20251;-87
2024/03/12 06:29:02;;;;;;;3.10;1.73;;;;;;;8.65;84.77;95904.66;5134080;27;20380;-87
2024/03/12 06:31:30;;;;;;;2.80;2.43;;;;;;;8.60;84.91;95920.66;5134263;27;20565;-87
2024/03/12 06:33:57;;;;;;;5.33;4.07;;;;;;;8.55;84.23;95918.84;5133872;27;20198;-87
2024/03/12 06:36:23;;;;;;;3.73;3.43;;;;;;;8.47;84.29;95892.97;5134037;27;20226;-87
2024/03/12 06:38:52;;;;;;;4.23;3.30;;;;;;;8.54;84.25;95918.06;5113965;28;20268;-87
2024/03/12 06:41:20;;;;;;;3.67;2.17;;;;;;;8.46;84.53;95926.69;5126904;27;20199;-87
2024/03/12 06:43:47;;;;;;;3.53;3.20;;;;;;;8.38;85.05;95940.59;5134170;27;20214;-87
2024/03/12 06:46:19;;;;;;;7.67;5.27;;;;;;;8.33;85.69;95954.69;5133818;27;20202;-87
2024/03/12 06:48:46;;;;;;;20.60;12.03;;;;;;;8.49;86.05;95949.19;5133794;27;20202;-87
2024/03/12 06:51:12;;;;;;;28.83;22.50;;;;;;;8.15;85.19;95875.16;5134336;27;20268;-87
2024/03/12 06:53:44;;;;;;;11.07;9.97;;;;;;;8.66;84.90;95961.94;5134492;27;20195;-86
2024/03/12 06:56:11;;;;;;;55.63;36.23;;;;;;;8.58;84.67;95942.94;5133043;27;20233;-87
2024/03/12 06:58:44;;;;;;;12.07;9.47;;;;;;;8.20;84.81;95881.16;5122518;27;20222;-87
2024/03/12 07:01:13;;;;;;;11.50;10.40;;;;;;;8.34;83.94;95883.88;5133530;27;20202;-88
2024/03/12 07:03:42;;;;;;;4.23;3.93;;;;;;;8.34;84.40;95932.38;5133729;27;20225;-87
2024/03/12 07:06:09;;;;;;;7.20;4.87;;;;;;;8.35;85.43;95896.06;5119356;27;20199;-87
2024/03/12 07:08:38;;;;;;;20.30;17.27;;;;;;;8.44;85.31;95888.25;5132562;27;20203;-86
2024/03/12 07:11:07;;;;;;;19.93;17.03;;;;;;;8.67;85.51;95905.13;5132525;27;20653;-85
2024/03/12 07:13:34;;;;;;;42.73;38.07;;;;;;;8.66;85.61;95891.09;5133039;27;20281;-86
2024/03/12 07:16:03;;;;;;;36.93;32.90;;;;;;;8.53;85.41;95852.06;5133029;27;20592;-85
2024/03/12 07:18:29;;;;;;;9.13;8.13;;;;;;;8.71;85.08;95861.03;5132381;27;20194;-85
2024/03/12 07:20:56;;;;;;;6.07;4.87;;;;;;;8.79;84.41;95841.81;5128953;27;20251;-85
2024/03/12 07:23:23;;;;;;;6.10;4.80;;;;;;;8.63;84.83;95837.81;5133100;27;20214;-85
2024/03/12 07:25:50;;;;;;;6.90;5.93;;;;;;;8.43;85.13;95831.78;5132427;27;20203;-85
2024/03/12 07:28:17;;;;;;;8.20;6.50;;;;;;;8.68;85.96;95858.97;5119501;27;20286;-85
2024/03/12 07:30:44;;;;;;;5.87;4.57;;;;;;;8.89;86.26;95873.47;5132717;27;20281;-85
2024/03/12 07:33:12;;;;;;;5.93;5.30;;;;;;;8.87;85.77;95865.00;5132803;27;20673;-85
2024/03/12 07:35:39;;;;;;;7.87;6.57;;;;;;;8.95;85.96;95898.06;5130434;27;20221;-85
2024/03/12 07:38:06;;;;;;;3.80;3.50;;;;;;;8.79;86.21;95894.88;5132296;27;20259;-85
2024/03/12 07:40:34;;;;;;;3.63;2.97;;;;;;;8.62;85.56;95890.09;5132269;27;20318;-85
2024/03/12 07:43:01;;;;;;;3.93;3.53;;;;;;;8.48;86.39;95863.53;5132743;27;20198;-84
2024/03/12 07:45:28;;;;;;;4.00;3.60;;;;;;;8.66;86.47;95885.78;5132361;27;20199;-84
2024/03/12 07:47:55;;;;;;;4.80;4.40;;;;;;;8.81;85.99;95871.47;5132432;27;20194;-85
2024/03/12 07:50:22;;;;;;;5.37;4.87;;;;;;;8.99;85.90;95870.63;5123094;27;20195;-84
2024/03/12 07:52:50;;;;;;;6.63;6.00;;;;;;;8.72;85.51;95813.00;5127558;28;20262;-84
2024/03/12 07:55:17;;;;;;;4.67;4.27;;;;;;;8.89;85.88;95868.16;5132395;27;20250;-84
2024/03/12 07:57:44;;;;;;;5.10;4.27;;;;;;;8.91;86.04;95881.94;5128738;28;20201;-84
2024/03/12 08:00:16;;;;;;;3.63;3.33;;;;;;;8.55;86.33;95845.38;5131803;27;20226;-84
2024/03/12 08:02:43;;;;;;;3.37;2.77;;;;;;;8.98;85.83;95887.66;5128636;28;20574;-84
2024/03/12 08:05:10;;;;;;;2.40;2.03;;;;;;;8.92;86.18;95898.63;5122066;28;20194;-84
2024/03/12 08:07:39;;;;;;;2.57;2.37;;;;;;;8.92;86.24;95906.59;5131909;28;20187;-84
2024/03/12 08:10:08;;;;;;;2.57;2.37;;;;;;;9.04;86.21;95910.34;5132138;28;20217;-84
2024/03/12 08:12:37;;;;;;;2.73;2.30;;;;;;;9.10;85.61;95916.38;5131938;28;20247;-84
2024/03/12 08:15:06;;;;;;;2.27;2.17;;;;;;;9.02;85.51;95893.13;5131657;27;20256;-84
2024/03/12 08:17:33;;;;;;;3.70;3.40;;;;;;;9.24;85.10;95921.69;5116308;28;20289;-84
2024/03/12 08:20:00;;;;;;;4.53;4.13;;;;;;;9.24;84.77;95940.28;5132084;27;20190;-84
2024/03/12 08:22:30;;;;;;;6.50;5.77;;;;;;;9.26;85.21;95938.13;5131437;28;20713;-84
2024/03/12 08:24:59;;;;;;;3.60;3.30;;;;;;;9.25;84.14;95942.66;5131656;28;20198;-84
2024/03/12 08:27:26;;;;;;;2.83;2.30;;;;;;;9.34;83.57;95947.28;5132128;28;20191;-84
2024/03/12 08:29:53;;;;;;;2.73;2.53;;;;;;;9.34;82.66;95964.00;5131304;27;20201;-84
2024/03/12 08:32:20;;;;;;;2.67;2.47;;;;;;;9.30;82.77;95942.56;5105177;28;20197;-83
2024/03/12 08:34:47;;;;;;;4.23;3.83;;;;;;;9.39;83.35;95947.97;5131775;28;20640;-84
2024/03/12 08:37:14;;;;;;;8.20;5.67;;;;;;;9.50;82.78;95965.28;5130331;28;20219;-84
2024/03/12 08:39:41;;;;;;;4.13;3.83;;;;;;;9.31;84.28;95957.41;5132404;27;20195;-84
2024/03/12 08:42:09;;;;;;;7.17;6.53;;;;;;;9.31;84.91;95952.09;5136108;27;20203;-84
2024/03/12 08:44:37;;;;;;;7.83;7.03;;;;;;;9.04;84.64;95893.63;5135894;27;20206;-84
2024/03/12 08:47:04;;;;;;;8.53;7.13;;;;;;;9.65;84.88;95935.00;5136177;27;20199;-84
2024/03/12 08:49:30;;;;;;;9.40;8.40;;;;;;;9.64;84.43;95940.59;5122409;27;20207;-84
2024/03/12 08:51:57;;;;;;;10.17;9.17;;;;;;;9.66;85.00;95935.78;5135788;27;20196;-84
2024/03/12 08:54:24;;;;;;;30.40;23.97;;;;;;;9.48;84.88;95943.53;5135243;27;20195;-84
2024/03/12 08:56:51;;;;;;;27.63;20.37;;;;;;;9.44;85.54;95953.19;5135295;27;20282;-84
2024/03/12 08:59:20;;;;;;;20.33;18.23;;;;;;;9.38;85.19;95942.97;5134617;27;20219;-84
2024/03/12 09:01:48;;;;;;;15.40;13.80;;;;;;;9.36;85.31;95948.53;5135953;27;20203;-84
2024/03/12 09:04:15;;;;;;;12.67;11.40;;;;;;;9.36;84.75;95927.28;5135061;27;20198;-84
2024/03/12 09:06:42;;;;;;;12.87;11.47;;;;;;;9.70;84.51;95945.53;5135308;27;20210;-84
2024/03/12 09:09:09;;;;;;;12.47;10.93;;;;;;;9.86;83.30;95940.69;5134376;27;20287;-85
2024/03/12 09:11:38;;;;;;;11.10;10.00;;;;;;;9.99;81.95;95947.88;5135419;27;20287;-85
2024/03/12 09:14:06;;;;;;;12.57;10.90;;;;;;;10.58;80.87;95929.31;5134775;27;20255;-84
2024/03/12 09:16:35;;;;;;;11.57;10.37;;;;;;;11.10;80.68;95932.31;5134772;27;20275;-84
2024/03/12 09:19:02;;;;;;;11.77;10.50;;;;;;;12.05;76.68;95899.16;5134840;27;20198;-85
2024/03/12 09:21:30;;;;;;;13.27;11.83;;;;;;;12.51;73.44;95884.38;5135098;27;20202;-84
2024/03/12 09:23:57;;;;;;;11.57;8.00;;;;;;;12.85;69.66;95887.00;5133632;27;20239;-85
2024/03/12 09:26:24;;;;;;;12.90;11.60;;;;;;;13.18;68.85;95905.97;5135041;27;20236;-85
2024/03/12 09:28:51;;;;;;;13.80;12.30;;;;;;;13.70;68.87;95908.44;5134680;27;20607;-84
2024/03/12 09:31:18;;;;;;;16.30;11.20;;;;;;;13.38;67.25;95885.78;5134844;27;20275;-85
2024/03/12 09:33:46;;;;;;;12.63;11.43;;;;;;;13.76;67.86;95894.91;5135340;27;20202;-85
2024/03/12 09:36:14;;;;;;;7.87;7.10;;;;;;;14.07;66.68;95905.28;5134668;27;20229;-85
2024/03/12 09:38:41;;;;;;;9.60;8.13;;;;;;;13.66;65.68;95870.09;5134837;27;20728;-85
2024/03/12 09:41:10;;;;;;;20.20;15.43;;;;;;;14.68;66.16;95897.59;5134598;27;20251;-85
2024/03/12 09:43:39;;;;;;;18.60;14.63;;;;;;;14.39;65.00;95859.03;5106425;27;20186;-85
2024/03/12 09:46:06;;;;;;;14.40;10.83;;;;;;;13.91;67.43;95905.06;5134327;27;20206;-86
2024/03/12 09:48:34;;;;;;;10.37;9.37;;;;;;;13.25;68.06;95905.50;5127164;27;20256;-85
2024/03/12 09:51:02;;;;;;;9.73;8.83;;;;;;;14.06;66.09;95909.06;5127781;27;20199;-84
2024/03/12 09:53:29;;;;;;;10.23;9.23;;;;;;;14.32;65.77;95906.19;5133746;27;20243;-84
2024/03/12 09:55:57;;;;;;;8.10;7.30;;;;;;;13.60;68.08;95916.06;5133793;27;20765;-85
2024/03/12 09:58:24;;;;;;;8.47;7.67;;;;;;;13.26;70.07;95901.72;5133793;27;20267;-84
2024/03/12 10:00:53;;;;;;;9.20;8.30;;;;;;;13.68;66.76;95918.69;5134381;27;20199;-84
2024/03/12 10:03:20;;;;;;;9.87;8.97;;;;;;;13.65;66.74;95836.44;5123387;27;20575;-85
2024/03/12 10:05:47;;;;;;;10.10;8.30;;;;;;;13.38;66.91;95906.41;5132979;27;20198;-85
2024/03/12 10:08:17;;;;;;;10.13;8.60;;;;;;;14.17;65.96;95912.91;5134218;27;20222;-85
2024/03/12 10:10:45;;;;;;;9.53;8.63;;;;;;;13.44;68.23;95921.94;5122275;27;20206;-84
2024/03/12 10:13:19;;;;;;;10.50;9.00;;;;;;;12.68;70.86;95901.19;5124150;27;20597;-84
2024/03/12 10:15:50;;;;;;;9.33;8.33;;;;;;;12.73;71.33;95918.91;5126594;27;20660;-85
2024/03/12 10:18:18;;;;;;;14.00;11.83;;;;;;;12.15;71.90;95886.28;5133570;27;20644;-84
2024/03/12 10:20:50;;;;;;;12.70;10.47;;;;;;;13.08;67.98;95876.91;5133685;27;20191;-84
2024/03/12 10:23:20;;;;;;;9.03;8.10;;;;;;;13.28;67.72;95870.13;5133720;27;20194;-85
2024/03/12 10:25:49;;;;;;;13.33;11.47;;;;;;;12.69;67.03;95862.69;5133201;27;20274;-85
2024/03/12 10:28:18;;;;;;;9.07;8.13;;;;;;;13.20;67.99;95895.75;5133606;27;20289;-85
2024/03/12 10:30:45;;;;;;;10.00;7.37;;;;;;;13.90;65.13;95833.91;5118169;27;20206;-85
2024/03/12 10:33:17;;;;;;;7.03;6.43;;;;;;;15.07;61.70;95885.53;5133325;27;20194;-85
2024/03/12 10:35:45;;;;;;;7.10;6.07;;;;;;;14.34;61.46;95887.91;5133231;27;20202;-84
2024/03/12 10:38:32;;;;;;;6.13;5.63;;;;;;;13.73;64.83;95861.56;5120599;27;20197;-85
2024/03/12 10:41:14;;;;;;;9.57;8.07;;;;;;;14.67;59.63;95871.91;5121089;27;20195;-85
2024/03/12 10:43:41;;;;;;;5.77;5.10;;;;;;;15.02;58.58;95866.97;5120278;27;20203;-85
2024/03/12 10:46:10;;;;;;;5.07;4.57;;;;;;;15.72;56.09;95872.34;5133097;27;20248;-85
2024/03/12 10:48:42;;;;;;;7.20;6.10;;;;;;;16.54;56.71;95836.34;5126728;27;20682;-85
2024/03/12 10:51:12;;;;;;;5.07;4.57;;;;;;;17.04;54.00;95840.38;5127054;27;20248;-85
2024/03/12 10:53:42;;;;;;;5.47;4.83;;;;;;;15.96;54.78;95857.34;5133281;27;20194;-85
2024/03/12 10:56:10;;;;;;;9.00;8.13;;;;;;;15.83;56.15;95838.53;5132790;27;20192;-85
2024/03/12 10:58:37;;;;;;;6.60;6.10;;;;;;;16.33;54.27;95807.78;5132695;27;20345;-85
2024/03/12 11:01:05;;;;;;;5.00;4.50;;;;;;;17.18;53.31;95854.16;5132701;27;20211;-85
2024/03/12 11:03:34;;;;;;;5.57;4.43;;;;;;;17.20;50.56;95837.72;5130152;27;20237;-85
2024/03/12 11:06:02;;;;;;;4.70;3.90;;;;;;;17.38;51.70;95844.28;5131434;27;20312;-85
2024/03/12 11:08:29;;;;;;;6.87;5.90;;;;;;;18.09;51.75;95840.56;5133007;27;20595;-84
2024/03/12 11:10:59;;;;;;;4.73;3.63;;;;;;;17.30;51.98;95842.56;5130736;27;20648;-85
2024/03/12 11:13:25;;;;;;;4.70;3.40;;;;;;;16.71;54.75;95846.78;5132517;27;20660;-85
2024/03/12 11:15:52;;;;;;;4.23;3.77;;;;;;;16.18;56.04;95843.41;5129586;27;20192;-85
2024/03/12 11:18:33;;;;;;;3.83;3.53;;;;;;;15.89;56.05;95842.56;5130772;27;20270;-85
2024/03/12 11:21:00;;;;;;;5.17;2.73;;;;;;;16.22;53.72;95849.66;5132186;27;20194;-85
2024/03/12 11:23:28;;;;;;;6.47;4.00;;;;;;;15.53;55.59;95813.88;5131812;27;20200;-85
2024/03/12 11:25:59;;;;;;;5.47;4.57;;;;;;;16.08;56.67;95846.56;5132426;27;20206;-85
2024/03/12 11:28:27;;;;;;;5.97;4.77;;;;;;;16.22;55.02;95851.56;5132685;27;20258;-85
2024/03/12 11:31:02;;;;;;;4.13;2.97;;;;;;;16.21;53.64;95841.94;5123876;27;20205;-85
2024/03/12 11:33:45;;;;;;;3.10;2.70;;;;;;;16.13;55.47;95833.69;5126277;27;20266;-85
2024/03/12 11:36:13;;;;;;;3.43;2.70;;;;;;;16.97;54.19;95816.00;5129312;27;20197;-84
2024/03/12 11:38:41;;;;;;;3.50;3.20;;;;;;;16.90;51.70;95826.56;5129159;27;20716;-86
2024/03/12 11:41:10;;;;;;;2.80;2.40;;;;;;;16.53;51.43;95805.22;5132343;27;20229;-85
2024/03/12 11:43:39;;;;;;;3.37;3.07;;;;;;;17.67;52.88;95810.75;5118526;27;20198;-85
2024/03/12 11:46:06;;;;;;;2.47;2.27;;;;;;;16.50;50.23;95762.94;5119121;28;20613;-85